Time;durP1;ratioP1;P1;durP2;ratioP2;P2;SDS_P1;SDS_P2;PMS_P1;PMS_P2;Temp;Humidity;BMP_temperature;BMP_pressure;BME280_temperature;BME280_humidity;BME280_pressure;Samples;Min_cycle;Max_cycle;Signal;HPM_P1;HPM_P2
2023/12/06 00:01:56;;;;;;;39.60;32.33;;;4.50;99.90;;;;;;4953091;28;20030;-79
2023/12/06 00:04:23;;;;;;;37.60;31.58;;;4.50;99.90;;;;;;4965885;28;20027;-79
2023/12/06 00:06:48;;;;;;;38.40;31.42;;;4.40;99.90;;;;;;4967801;28;20109;-78
2023/12/06 00:09:14;;;;;;;35.45;29.55;;;4.40;99.90;;;;;;4971686;28;20114;-79
2023/12/06 00:11:40;;;;;;;34.92;28.83;;;4.40;99.90;;;;;;4963881;28;20038;-78
2023/12/06 00:14:06;;;;;;;36.85;29.55;;;4.30;99.90;;;;;;4968559;28;20113;-78
2023/12/06 00:16:32;;;;;;;38.28;30.05;;;4.40;99.90;;;;;;4972383;28;20046;-79
2023/12/06 00:18:57;;;;;;;35.85;28.67;;;4.30;99.90;;;;;;4969901;28;20034;-79
2023/12/06 00:21:23;;;;;;;32.40;28.42;;;4.40;99.90;;;;;;4966309;28;20034;-79
2023/12/06 00:23:49;;;;;;;35.45;28.73;;;4.40;99.90;;;;;;4967714;28;20038;-79
2023/12/06 00:26:14;;;;;;;29.13;24.00;;;4.40;99.90;;;;;;4969247;28;20022;-78
2023/12/06 00:28:40;;;;;;;31.58;26.65;;;4.40;99.90;;;;;;4971977;28;20066;-79
2023/12/06 00:31:05;;;;;;;30.00;24.38;;;4.40;99.90;;;;;;4968342;28;20023;-78
2023/12/06 00:33:31;;;;;;;26.00;22.83;;;4.30;99.90;;;;;;4968173;28;20142;-79
2023/12/06 00:35:57;;;;;;;27.48;20.95;;;4.20;99.90;;;;;;4968076;28;20447;-79
2023/12/06 00:38:22;;;;;;;23.25;20.10;;;4.20;99.90;;;;;;4975740;28;20034;-79
2023/12/06 00:40:48;;;;;;;24.20;20.52;;;4.20;99.90;;;;;;4967412;28;20082;-79
2023/12/06 00:43:14;;;;;;;32.42;25.40;;;4.30;99.90;;;;;;4954766;28;20496;-79
2023/12/06 00:45:39;;;;;;;30.75;25.70;;;4.30;99.90;;;;;;4951901;28;20053;-79
2023/12/06 00:48:05;;;;;;;25.98;20.35;;;4.30;99.90;;;;;;4964732;28;20397;-79
2023/12/06 00:50:30;;;;;;;22.13;19.23;;;4.30;99.90;;;;;;4957910;28;20065;-79
2023/12/06 00:52:56;;;;;;;25.13;20.13;;;4.30;99.90;;;;;;4953540;28;20023;-79
2023/12/06 00:55:22;;;;;;;31.20;23.92;;;4.30;99.90;;;;;;4967984;28;20055;-78
2023/12/06 00:57:47;;;;;;;26.13;20.65;;;4.20;99.90;;;;;;4971008;28;20126;-79
2023/12/06 01:00:13;;;;;;;28.65;23.23;;;4.10;99.90;;;;;;4968545;28;20023;-78
2023/12/06 01:02:39;;;;;;;30.90;24.27;;;4.00;99.90;;;;;;4971543;28;20062;-79
2023/12/06 01:05:05;;;;;;;28.85;23.67;;;4.00;99.90;;;;;;4964354;28;20055;-78
2023/12/06 01:07:31;;;;;;;26.98;23.13;;;4.00;99.90;;;;;;4970891;28;20027;-79
2023/12/06 01:09:57;;;;;;;31.70;23.95;;;4.00;99.90;;;;;;4964432;28;20038;-79
2023/12/06 01:12:22;;;;;;;28.02;23.58;;;4.00;99.90;;;;;;4957003;28;20118;-78
2023/12/06 01:14:48;;;;;;;28.08;24.23;;;3.90;99.90;;;;;;4967747;28;20037;-79
2023/12/06 01:17:14;;;;;;;26.23;21.35;;;4.00;99.90;;;;;;4957296;28;20026;-78
2023/12/06 01:19:39;;;;;;;26.00;21.23;;;4.00;99.90;;;;;;4966396;28;20031;-78
2023/12/06 01:22:05;;;;;;;29.48;21.98;;;4.00;99.90;;;;;;4964201;28;20023;-79
2023/12/06 01:24:30;;;;;;;21.02;17.40;;;4.00;99.90;;;;;;4966907;28;20018;-78
2023/12/06 01:26:56;;;;;;;21.33;19.02;;;4.10;99.90;;;;;;4952252;28;20026;-78
2023/12/06 01:29:22;;;;;;;23.17;18.73;;;4.10;99.90;;;;;;4965710;28;20059;-79
2023/12/06 01:31:47;;;;;;;19.60;17.50;;;4.00;99.90;;;;;;4970938;28;20050;-79
2023/12/06 01:34:13;;;;;;;21.67;18.42;;;3.90;99.90;;;;;;4949345;28;20026;-78
2023/12/06 01:36:39;;;;;;;21.00;18.60;;;3.80;99.90;;;;;;4963602;28;20027;-78
2023/12/06 01:39:04;;;;;;;21.20;18.90;;;3.80;99.90;;;;;;4952650;28;20494;-79
2023/12/06 01:41:30;;;;;;;21.13;18.83;;;3.90;99.90;;;;;;4970652;28;20031;-79
2023/12/06 01:43:56;;;;;;;19.17;16.95;;;3.90;99.90;;;;;;4970003;28;20054;-79
2023/12/06 01:46:21;;;;;;;14.70;13.13;;;3.90;99.90;;;;;;4966920;28;20023;-79
2023/12/06 01:48:48;;;;;;;13.18;11.77;;;4.00;99.90;;;;;;4969188;28;20073;-79
2023/12/06 01:51:17;;;;;;;15.32;13.82;;;4.20;99.90;;;;;;4957781;28;20122;-79
2023/12/06 01:53:42;;;;;;;17.42;15.68;;;4.10;99.90;;;;;;4966118;28;20031;-78
2023/12/06 01:56:10;;;;;;;19.52;16.00;;;4.00;99.90;;;;;;4966862;28;20027;-79
2023/12/06 01:58:37;;;;;;;18.65;16.75;;;3.90;99.90;;;;;;4966878;28;20038;-79
2023/12/06 02:01:06;;;;;;;22.67;18.50;;;3.60;99.90;;;;;;4948918;28;20039;-76
2023/12/06 02:03:34;;;;;;;22.15;19.33;;;3.60;99.90;;;;;;4963482;28;20028;-76
2023/12/06 02:06:02;;;;;;;21.80;19.58;;;3.70;99.90;;;;;;4966174;28;20062;-76
2023/12/06 02:08:33;;;;;;;23.75;20.05;;;3.60;99.90;;;;;;4952612;28;20027;-79
2023/12/06 02:10:59;;;;;;;21.70;18.00;;;3.70;99.90;;;;;;4964598;28;20488;-79
2023/12/06 02:13:25;;;;;;;19.60;17.52;;;3.70;99.90;;;;;;4966539;28;20035;-79
2023/12/06 02:15:51;;;;;;;20.77;17.75;;;3.70;99.90;;;;;;4956548;28;20034;-79
2023/12/06 02:18:17;;;;;;;17.83;15.93;;;3.60;99.90;;;;;;4966335;28;20477;-78
2023/12/06 02:20:44;;;;;;;22.73;16.23;;;3.60;99.90;;;;;;4956016;28;20066;-79
2023/12/06 02:23:11;;;;;;;17.52;14.63;;;3.50;99.90;;;;;;4966344;28;20414;-79
2023/12/06 02:25:36;;;;;;;17.35;15.45;;;3.50;99.90;;;;;;4966308;28;20540;-79
2023/12/06 02:28:02;;;;;;;15.77;14.18;;;3.50;99.90;;;;;;4969775;28;20038;-79
2023/12/06 02:30:28;;;;;;;14.63;13.13;;;3.40;99.90;;;;;;4966026;28;20057;-79
2023/12/06 02:32:53;;;;;;;16.48;13.23;;;3.30;99.90;;;;;;4966851;28;20479;-78
2023/12/06 02:35:25;;;;;;;14.40;12.88;;;3.30;99.90;;;;;;4966025;28;20030;-79
2023/12/06 02:37:54;;;;;;;13.32;11.82;;;3.30;99.90;;;;;;4956850;28;20142;-78
2023/12/06 02:40:21;;;;;;;12.40;11.10;;;3.30;99.90;;;;;;4961105;28;20077;-79
2023/12/06 02:42:47;;;;;;;13.00;11.70;;;3.30;99.90;;;;;;4970442;28;20077;-79
2023/12/06 02:45:12;;;;;;;11.27;10.18;;;3.20;99.90;;;;;;4963633;28;20063;-79
2023/12/06 02:47:38;;;;;;;10.35;9.35;;;3.30;99.90;;;;;;4968502;28;20061;-79
2023/12/06 02:50:04;;;;;;;10.18;9.02;;;3.30;99.90;;;;;;4962523;28;20062;-79
2023/12/06 02:52:30;;;;;;;10.38;8.55;;;3.30;99.90;;;;;;4965944;28;20069;-79
2023/12/06 02:54:55;;;;;;;7.40;6.53;;;3.30;99.90;;;;;;4965131;28;20508;-79
2023/12/06 02:57:21;;;;;;;7.07;5.95;;;3.40;99.90;;;;;;4953871;28;20031;-79
2023/12/06 02:59:47;;;;;;;7.32;6.65;;;3.50;99.90;;;;;;4946557;28;20027;-79
2023/12/06 03:02:12;;;;;;;7.53;6.93;;;3.60;99.90;;;;;;4965657;28;20118;-78
2023/12/06 03:04:38;;;;;;;7.10;6.45;;;3.60;99.90;;;;;;4947720;28;20058;-79
2023/12/06 03:07:04;;;;;;;10.85;9.75;;;3.60;99.90;;;;;;4964953;28;20042;-79
2023/12/06 03:09:29;;;;;;;12.23;10.88;;;3.60;99.90;;;;;;4964279;28;20074;-78
2023/12/06 03:11:55;;;;;;;11.40;9.70;;;3.40;99.90;;;;;;4965075;28;20055;-79
2023/12/06 03:14:21;;;;;;;11.43;10.27;;;3.30;99.90;;;;;;4964484;28;20042;-79
2023/12/06 03:16:47;;;;;;;11.95;10.75;;;3.20;99.90;;;;;;4966691;28;20022;-79
2023/12/06 03:19:12;;;;;;;12.88;11.57;;;3.10;99.90;;;;;;4967507;28;20027;-79
2023/12/06 03:21:38;;;;;;;14.93;11.55;;;3.10;99.90;;;;;;4967392;28;20465;-79
2023/12/06 03:24:04;;;;;;;14.70;11.52;;;3.10;99.90;;;;;;4961921;28;20027;-78
2023/12/06 03:26:30;;;;;;;11.70;10.63;;;3.20;99.90;;;;;;4965649;28;20425;-79
2023/12/06 03:28:55;;;;;;;12.77;11.40;;;3.10;99.90;;;;;;4948432;28;20027;-79
2023/12/06 03:31:21;;;;;;;11.95;10.68;;;3.10;99.90;;;;;;4967106;28;20110;-79
2023/12/06 03:33:47;;;;;;;10.00;9.10;;;3.20;99.90;;;;;;4966930;28;20038;-79
2023/12/06 03:36:13;;;;;;;12.32;11.13;;;3.20;99.90;;;;;;4949609;28;20373;-79
2023/12/06 03:38:39;;;;;;;11.77;10.57;;;3.20;99.90;;;;;;4964180;28;20046;-79
2023/12/06 03:41:05;;;;;;;11.43;10.23;;;3.20;99.90;;;;;;4962756;28;20019;-79
2023/12/06 03:43:31;;;;;;;12.27;10.57;;;3.10;99.90;;;;;;4947435;28;20033;-79
2023/12/06 03:45:57;;;;;;;13.35;10.75;;;3.10;99.90;;;;;;4963310;28;20015;-79
2023/12/06 03:48:22;;;;;;;13.30;11.43;;;3.00;99.90;;;;;;4964844;28;20468;-79
2023/12/06 03:50:48;;;;;;;11.48;10.38;;;2.90;99.90;;;;;;4963019;28;20085;-79
2023/12/06 03:53:13;;;;;;;12.00;10.77;;;3.00;99.90;;;;;;4966788;28;20041;-79
2023/12/06 03:55:39;;;;;;;11.20;10.10;;;3.00;99.90;;;;;;4967396;28;20034;-79
2023/12/06 03:58:06;;;;;;;11.63;10.15;;;3.00;99.90;;;;;;4968329;28;20121;-79
2023/12/06 04:00:31;;;;;;;12.20;9.80;;;3.10;99.90;;;;;;4947440;28;20035;-79
2023/12/06 04:02:57;;;;;;;9.85;8.95;;;3.00;99.90;;;;;;4948609;28;20430;-79
2023/12/06 04:05:23;;;;;;;7.97;7.28;;;2.90;99.90;;;;;;4964376;28;20077;-79
2023/12/06 04:07:49;;;;;;;9.10;8.20;;;2.90;99.90;;;;;;4968695;28;20485;-79
2023/12/06 04:10:15;;;;;;;11.05;9.95;;;2.90;99.90;;;;;;4965064;28;20031;-79
2023/12/06 04:12:40;;;;;;;9.15;8.35;;;3.00;99.90;;;;;;4951499;28;20117;-79
2023/12/06 04:15:07;;;;;;;8.98;8.10;;;3.00;99.90;;;;;;4943530;28;20110;-79
2023/12/06 04:17:32;;;;;;;10.20;9.27;;;3.00;99.90;;;;;;4966801;28;20401;-79
2023/12/06 04:19:58;;;;;;;8.40;7.70;;;3.00;99.90;;;;;;4961249;28;20028;-79
2023/12/06 04:22:23;;;;;;;8.95;8.15;;;3.00;99.90;;;;;;4967850;28;20031;-79
2023/12/06 04:24:49;;;;;;;10.27;8.27;;;3.00;99.90;;;;;;4946700;28;20037;-79
2023/12/06 04:27:15;;;;;;;9.98;8.98;;;2.90;99.90;;;;;;4964358;28;20028;-79
2023/12/06 04:29:41;;;;;;;10.30;9.15;;;2.90;99.90;;;;;;4948955;28;20493;-79
2023/12/06 04:32:06;;;;;;;9.65;8.73;;;2.90;99.90;;;;;;4964300;28;20059;-78
2023/12/06 04:34:33;;;;;;;9.57;8.68;;;2.80;99.90;;;;;;4964208;28;20109;-78
2023/12/06 04:36:59;;;;;;;10.23;9.23;;;2.80;99.90;;;;;;4963564;28;20031;-79
2023/12/06 04:39:24;;;;;;;9.55;8.60;;;2.70;99.90;;;;;;4962960;28;20400;-79
2023/12/06 04:41:50;;;;;;;10.88;8.43;;;2.70;99.90;;;;;;4964707;28;20470;-79
2023/12/06 04:44:16;;;;;;;7.88;7.10;;;2.70;99.90;;;;;;4964472;28;20034;-78
2023/12/06 04:46:41;;;;;;;9.63;8.65;;;2.70;99.90;;;;;;4966127;28;20261;-79
2023/12/06 04:49:07;;;;;;;10.38;9.32;;;2.70;99.90;;;;;;4952895;28;20027;-79
2023/12/06 04:51:33;;;;;;;8.98;8.18;;;2.80;99.90;;;;;;4965871;28;20034;-79
2023/12/06 04:53:58;;;;;;;11.50;10.27;;;2.70;99.90;;;;;;4951810;28;20027;-79
2023/12/06 04:56:24;;;;;;;9.98;9.00;;;2.70;99.90;;;;;;4967547;28;20030;-78
2023/12/06 04:58:49;;;;;;;8.68;7.88;;;2.70;99.90;;;;;;4968995;28;20139;-78
2023/12/06 05:01:16;;;;;;;10.13;9.18;;;2.60;99.90;;;;;;4951759;28;20030;-78
2023/12/06 05:03:41;;;;;;;10.25;8.80;;;2.50;99.90;;;;;;4965945;28;20477;-79
2023/12/06 05:06:07;;;;;;;13.20;11.75;;;2.50;99.90;;;;;;4967661;28;20026;-79
2023/12/06 05:08:32;;;;;;;12.43;11.13;;;2.50;99.90;;;;;;4968872;28;20530;-79
2023/12/06 05:10:58;;;;;;;13.13;11.82;;;2.50;99.90;;;;;;4968001;28;20295;-79
2023/12/06 05:13:24;;;;;;;11.07;9.93;;;2.50;99.90;;;;;;4967884;28;20031;-79
2023/12/06 05:15:49;;;;;;;12.80;9.90;;;2.60;99.90;;;;;;4965846;28;20027;-79
2023/12/06 05:18:15;;;;;;;11.57;10.38;;;2.60;99.90;;;;;;4958240;28;20086;-78
2023/12/06 05:20:41;;;;;;;12.82;11.52;;;2.70;99.90;;;;;;4965439;28;20077;-78
2023/12/06 05:23:06;;;;;;;14.52;12.63;;;2.70;99.90;;;;;;4967544;28;20110;-79
2023/12/06 05:25:32;;;;;;;13.52;11.23;;;2.80;99.90;;;;;;4949470;28;20029;-79
2023/12/06 05:27:58;;;;;;;12.02;10.88;;;2.90;99.90;;;;;;4956022;28;20106;-78
2023/12/06 05:30:24;;;;;;;13.38;10.68;;;2.80;99.90;;;;;;4967556;28;20157;-79
2023/12/06 05:32:50;;;;;;;12.18;10.82;;;2.80;99.90;;;;;;4969987;28;20051;-79
2023/12/06 05:35:16;;;;;;;15.20;12.85;;;2.80;99.90;;;;;;4966494;28;20519;-79
2023/12/06 05:37:41;;;;;;;11.65;10.55;;;2.70;99.90;;;;;;4966921;28;20436;-79
2023/12/06 05:40:07;;;;;;;12.90;11.50;;;2.70;99.90;;;;;;4966274;28;20028;-79
2023/12/06 05:42:33;;;;;;;17.67;14.23;;;2.70;99.90;;;;;;4968167;28;20496;-79
2023/12/06 05:44:58;;;;;;;18.27;14.55;;;2.60;99.90;;;;;;4965203;28;20083;-79
2023/12/06 05:47:25;;;;;;;23.42;18.65;;;2.80;99.90;;;;;;4967161;28;20019;-79
2023/12/06 05:49:51;;;;;;;17.98;15.57;;;2.90;99.90;;;;;;4963688;28;20049;-79
2023/12/06 05:52:16;;;;;;;18.05;15.70;;;2.90;99.90;;;;;;4968272;28;20034;-79
2023/12/06 05:54:42;;;;;;;16.77;14.57;;;2.80;99.90;;;;;;4964511;28;20031;-79
2023/12/06 05:57:08;;;;;;;20.50;15.50;;;2.90;99.90;;;;;;4969273;28;20125;-79
2023/12/06 05:59:33;;;;;;;16.35;14.50;;;2.90;99.90;;;;;;4964683;28;20393;-78
2023/12/06 06:01:59;;;;;;;22.63;14.65;;;2.90;99.90;;;;;;4970028;28;20027;-78
2023/12/06 06:04:26;;;;;;;19.42;15.23;;;2.90;99.90;;;;;;4970320;28;20085;-79
2023/12/06 06:06:51;;;;;;;17.98;14.02;;;2.90;99.90;;;;;;4952692;28;20442;-79
2023/12/06 06:09:17;;;;;;;15.95;13.90;;;2.80;99.90;;;;;;4966575;28;20027;-78
2023/12/06 06:11:43;;;;;;;13.65;12.30;;;2.80;99.90;;;;;;4969462;28;20101;-78
2023/12/06 06:14:09;;;;;;;16.83;14.75;;;2.70;99.90;;;;;;4951946;28;20478;-79
2023/12/06 06:16:35;;;;;;;17.40;14.43;;;2.70;99.90;;;;;;4968534;28;20023;-79
2023/12/06 06:19:00;;;;;;;16.27;14.43;;;2.70;99.90;;;;;;4969893;28;20054;-78
2023/12/06 06:21:26;;;;;;;17.23;15.43;;;2.70;99.90;;;;;;4971918;28;20057;-79
2023/12/06 06:23:52;;;;;;;20.13;14.75;;;2.70;99.90;;;;;;4967348;28;20027;-79
2023/12/06 06:26:18;;;;;;;17.30;15.45;;;2.70;99.90;;;;;;4969769;28;20477;-79
2023/12/06 06:28:44;;;;;;;19.00;15.23;;;2.70;99.90;;;;;;4956469;28;20037;-79
2023/12/06 06:31:10;;;;;;;18.27;15.23;;;2.60;99.90;;;;;;4966068;28;20046;-79
2023/12/06 06:33:35;;;;;;;20.45;16.38;;;2.60;99.90;;;;;;4966205;28;20079;-79
2023/12/06 06:36:01;;;;;;;17.85;14.45;;;2.60;99.90;;;;;;4969883;28;20062;-79
2023/12/06 06:38:27;;;;;;;19.93;16.50;;;2.60;99.90;;;;;;4966125;28;20031;-79
2023/12/06 06:40:52;;;;;;;21.13;16.83;;;2.60;99.90;;;;;;4969383;28;20058;-79
2023/12/06 06:43:18;;;;;;;19.80;15.15;;;2.60;99.90;;;;;;4962781;28;20027;-79
2023/12/06 06:45:44;;;;;;;23.88;16.33;;;2.60;99.90;;;;;;4948061;28;20049;-79
2023/12/06 06:48:10;;;;;;;19.75;16.30;;;2.60;99.90;;;;;;4967079;28;20489;-79
2023/12/06 06:50:36;;;;;;;17.63;15.43;;;2.40;99.90;;;;;;4961748;28;20027;-79
2023/12/06 06:53:01;;;;;;;18.13;15.23;;;2.40;99.90;;;;;;4969416;28;20038;-78
2023/12/06 06:55:27;;;;;;;19.55;14.30;;;2.50;99.90;;;;;;4947608;28;20030;-79
2023/12/06 06:57:53;;;;;;;16.27;13.83;;;2.50;99.90;;;;;;4965011;28;20114;-78
2023/12/06 07:00:20;;;;;;;15.47;13.17;;;2.60;99.90;;;;;;4962330;28;20038;-78
2023/12/06 07:02:47;;;;;;;18.77;15.40;;;2.60;99.90;;;;;;4953424;28;20030;-79
2023/12/06 07:05:13;;;;;;;17.02;15.02;;;2.60;99.90;;;;;;4955427;28;20027;-79
2023/12/06 07:07:43;;;;;;;17.03;15.23;;;2.50;99.90;;;;;;4967982;28;20027;-79
2023/12/06 07:10:09;;;;;;;18.80;15.23;;;2.50;99.90;;;;;;4964588;28;20042;-79
2023/12/06 07:12:36;;;;;;;16.92;14.05;;;2.50;99.90;;;;;;4948586;28;20031;-78
2023/12/06 07:15:03;;;;;;;18.42;15.07;;;2.50;99.90;;;;;;4962147;28;20548;-79
2023/12/06 07:17:31;;;;;;;16.43;14.63;;;2.50;99.90;;;;;;4966080;28;20032;-79
2023/12/06 07:19:58;;;;;;;14.57;13.15;;;2.60;99.90;;;;;;4965488;28;20031;-79
2023/12/06 07:22:24;;;;;;;13.65;11.77;;;2.60;99.90;;;;;;4948720;28;20399;-79
2023/12/06 07:24:50;;;;;;;14.27;11.47;;;2.70;99.90;;;;;;4961981;28;20119;-79
2023/12/06 07:27:15;;;;;;;14.27;11.50;;;2.70;99.90;;;;;;4970517;28;20114;-79
2023/12/06 07:29:44;;;;;;;12.60;11.13;;;2.80;99.90;;;;;;4948014;28;20050;-78
2023/12/06 07:32:09;;;;;;;14.50;12.23;;;2.80;99.90;;;;;;4973201;28;20050;-79
2023/12/06 07:34:35;;;;;;;17.75;12.98;;;2.80;99.90;;;;;;4967331;28;20030;-79
2023/12/06 07:37:01;;;;;;;14.75;11.75;;;2.80;99.90;;;;;;4956397;28;20034;-78
2023/12/06 07:39:26;;;;;;;13.50;11.75;;;2.90;99.90;;;;;;4964741;28;20035;-79
2023/12/06 07:41:52;;;;;;;12.25;11.07;;;2.90;99.90;;;;;;4967018;28;20351;-79
2023/12/06 07:44:20;;;;;;;13.25;10.88;;;3.00;99.90;;;;;;4969147;28;20070;-79
2023/12/06 07:46:46;;;;;;;11.23;10.13;;;3.00;99.90;;;;;;4946540;28;20027;-79
2023/12/06 07:49:12;;;;;;;9.45;8.57;;;3.00;99.90;;;;;;4964473;28;20378;-79
2023/12/06 07:51:38;;;;;;;11.55;9.13;;;3.10;99.90;;;;;;4963177;28;20026;-79
2023/12/06 07:54:04;;;;;;;10.25;9.25;;;3.10;99.90;;;;;;4963641;28;20027;-79
2023/12/06 07:56:30;;;;;;;11.40;8.95;;;3.20;99.90;;;;;;4964267;28;20559;-79
2023/12/06 07:58:57;;;;;;;10.23;8.00;;;3.30;99.90;;;;;;4962450;28;20032;-79
2023/12/06 08:01:31;;;;;;;8.93;8.13;;;3.30;99.90;;;;;;4964963;28;20112;-79
2023/12/06 08:04:00;;;;;;;9.25;8.35;;;3.30;99.90;;;;;;4945455;28;20454;-79
2023/12/06 08:06:27;;;;;;;10.75;9.75;;;3.40;99.90;;;;;;4965440;28;20091;-79
2023/12/06 08:08:53;;;;;;;14.55;13.07;;;3.40;99.90;;;;;;4964529;28;20023;-79
2023/12/06 08:11:19;;;;;;;19.65;13.85;;;3.50;99.90;;;;;;4951329;28;20031;-79
2023/12/06 08:13:47;;;;;;;14.45;13.00;;;3.50;99.90;;;;;;4961517;28;20489;-79
2023/12/06 08:16:12;;;;;;;17.90;13.80;;;3.60;99.90;;;;;;4964883;28;20473;-79
2023/12/06 08:18:38;;;;;;;16.00;13.77;;;3.60;99.90;;;;;;4952515;28;20042;-79
2023/12/06 08:21:07;;;;;;;18.35;15.68;;;3.60;99.90;;;;;;4964381;28;20041;-79
2023/12/06 08:23:34;;;;;;;16.83;14.93;;;3.70;99.90;;;;;;4964396;28;20023;-79
2023/12/06 08:25:59;;;;;;;27.25;21.80;;;3.70;99.90;;;;;;4955121;28;20029;-78
2023/12/06 08:28:25;;;;;;;30.88;27.75;;;3.70;99.90;;;;;;4965184;28;20027;-78
2023/12/06 08:30:51;;;;;;;29.98;26.88;;;3.80;99.90;;;;;;4967222;28;20019;-78
2023/12/06 08:33:19;;;;;;;24.58;21.95;;;3.80;99.90;;;;;;4968169;28;20051;-78
2023/12/06 08:35:45;;;;;;;21.15;18.48;;;3.80;99.90;;;;;;4968261;28;20497;-78
2023/12/06 08:38:11;;;;;;;21.00;15.90;;;3.90;99.90;;;;;;4969164;28;20070;-78
2023/12/06 08:40:37;;;;;;;18.60;16.70;;;4.00;99.90;;;;;;4973258;28;20071;-78
2023/12/06 08:43:03;;;;;;;20.90;16.23;;;4.10;99.90;;;;;;4956275;28;20054;-78
2023/12/06 08:45:29;;;;;;;22.20;17.50;;;4.10;99.90;;;;;;4951951;28;20023;-78
2023/12/06 08:47:54;;;;;;;20.35;16.63;;;4.10;99.90;;;;;;4966512;28;20093;-78
2023/12/06 08:50:21;;;;;;;30.67;17.73;;;4.20;99.90;;;;;;4964146;28;20378;-78
2023/12/06 08:52:47;;;;;;;18.27;14.90;;;4.20;99.90;;;;;;4972328;28;20399;-78
2023/12/06 08:55:13;;;;;;;19.75;15.60;;;4.20;99.90;;;;;;4964190;28;20022;-78
2023/12/06 08:57:39;;;;;;;16.40;14.70;;;4.30;99.90;;;;;;4969575;28;20026;-78
2023/12/06 09:00:07;;;;;;;20.85;15.65;;;4.30;99.90;;;;;;4948055;28;20063;-78
2023/12/06 09:02:34;;;;;;;18.73;16.08;;;4.40;99.90;;;;;;4951257;28;20054;-77
2023/12/06 09:05:00;;;;;;;23.33;17.55;;;4.40;99.90;;;;;;4966591;28;20066;-78
2023/12/06 09:07:26;;;;;;;23.75;17.52;;;4.40;99.90;;;;;;4954092;28;20034;-78
2023/12/06 09:09:51;;;;;;;22.85;18.95;;;4.40;99.90;;;;;;4950861;28;20058;-77
2023/12/06 09:12:17;;;;;;;23.63;18.35;;;4.50;99.90;;;;;;4958488;28;20476;-77
2023/12/06 09:14:43;;;;;;;19.10;16.00;;;4.60;99.90;;;;;;4964281;28;20481;-78
2023/12/06 09:17:09;;;;;;;19.45;15.15;;;4.60;99.90;;;;;;4967861;28;20492;-77
2023/12/06 09:19:34;;;;;;;18.52;15.35;;;4.70;99.90;;;;;;4967405;28;20045;-77
2023/12/06 09:22:00;;;;;;;22.98;15.75;;;4.70;99.90;;;;;;4967435;28;20401;-78
2023/12/06 09:24:26;;;;;;;18.85;16.25;;;4.70;99.90;;;;;;4966157;28;20033;-77
2023/12/06 09:26:51;;;;;;;18.33;15.57;;;4.80;99.90;;;;;;4965232;28;20055;-77
2023/12/06 09:29:17;;;;;;;21.85;17.00;;;4.80;99.90;;;;;;4967167;28;20026;-77
2023/12/06 09:31:43;;;;;;;19.98;17.63;;;4.90;99.90;;;;;;4951035;28;20043;-77
2023/12/06 09:34:09;;;;;;;21.70;16.52;;;4.90;99.90;;;;;;4964064;28;20067;-77
2023/12/06 09:36:35;;;;;;;18.63;16.40;;;4.90;99.90;;;;;;4970368;28;20113;-77
2023/12/06 09:39:04;;;;;;;17.20;13.93;;;5.00;99.90;;;;;;4967578;28;20043;-77
2023/12/06 09:41:32;;;;;;;17.90;15.50;;;5.00;99.90;;;;;;4967664;28;20093;-77
2023/12/06 09:44:01;;;;;;;16.40;13.00;;;5.10;99.90;;;;;;4944965;29;20074;-77
2023/12/06 09:46:27;;;;;;;14.93;12.52;;;5.10;99.90;;;;;;4966680;28;20390;-77
2023/12/06 09:48:53;;;;;;;14.02;12.48;;;5.20;99.90;;;;;;4971249;28;20496;-77
2023/12/06 09:51:20;;;;;;;14.02;12.40;;;5.20;99.90;;;;;;4946134;28;20150;-77
2023/12/06 09:53:46;;;;;;;18.63;12.85;;;5.30;99.90;;;;;;4946642;28;20379;-77
2023/12/06 09:56:13;;;;;;;18.10;12.27;;;5.30;99.90;;;;;;4949945;28;20038;-77
2023/12/06 09:58:39;;;;;;;17.60;12.63;;;5.50;99.90;;;;;;4963612;28;20039;-77
2023/12/06 10:01:05;;;;;;;15.48;12.18;;;5.50;99.90;;;;;;4966589;28;20026;-77
2023/12/06 10:03:31;;;;;;;12.57;10.95;;;5.60;99.90;;;;;;4966883;28;20030;-77
2023/12/06 10:05:59;;;;;;;13.63;11.30;;;5.60;99.90;;;;;;4969857;28;20027;-77
2023/12/06 10:08:25;;;;;;;15.25;12.30;;;5.70;99.90;;;;;;4955762;28;20062;-77
2023/12/06 10:11:12;;;;;;;15.48;12.93;;;5.70;99.90;;;;;;4968777;28;20035;-77
2023/12/06 10:13:41;;;;;;;19.35;13.57;;;5.70;99.90;;;;;;4963440;28;20024;-77
2023/12/06 10:16:13;;;;;;;17.23;13.93;;;5.80;99.90;;;;;;4966353;28;20027;-77
2023/12/06 10:18:40;;;;;;;16.83;15.13;;;5.80;99.90;;;;;;4967161;28;20031;-77
2023/12/06 10:21:06;;;;;;;15.60;14.02;;;6.00;99.90;;;;;;4966109;28;20078;-77
2023/12/06 10:23:31;;;;;;;16.60;14.05;;;6.00;99.90;;;;;;4970177;28;20026;-77
2023/12/06 10:25:57;;;;;;;21.20;15.38;;;6.00;99.90;;;;;;4948908;28;20030;-76
2023/12/06 10:28:23;;;;;;;17.55;15.13;;;6.10;99.90;;;;;;4964680;28;20489;-76
2023/12/06 10:31:04;;;;;;;22.45;16.52;;;6.20;99.90;;;;;;4963961;28;20037;-77
2023/12/06 10:33:31;;;;;;;22.13;17.48;;;6.20;99.90;;;;;;4978137;28;20193;-77
2023/12/06 10:36:00;;;;;;;24.15;17.05;;;6.30;99.90;;;;;;4965773;28;20035;-77
2023/12/06 10:38:28;;;;;;;21.55;17.58;;;6.30;99.90;;;;;;4966136;28;20035;-77
2023/12/06 10:40:57;;;;;;;24.25;17.50;;;6.40;99.90;;;;;;4969241;28;20519;-77
2023/12/06 10:43:23;;;;;;;23.27;16.13;;;6.50;99.90;;;;;;4970267;28;20503;-77
2023/12/06 10:45:51;;;;;;;18.40;15.18;;;6.50;99.90;;;;;;4962401;28;20036;-77
2023/12/06 10:48:18;;;;;;;22.40;16.00;;;6.60;99.90;;;;;;4956508;28;20485;-77
2023/12/06 10:50:45;;;;;;;29.77;15.75;;;6.60;99.90;;;;;;4948525;28;20031;-78
2023/12/06 10:53:16;;;;;;;22.65;16.17;;;6.60;99.90;;;;;;4972153;28;20030;-77
2023/12/06 10:55:42;;;;;;;19.40;14.95;;;6.70;99.90;;;;;;4948294;28;20581;-77
2023/12/06 10:58:08;;;;;;;19.27;13.95;;;6.80;99.90;;;;;;4973125;28;20119;-77
2023/12/06 11:00:34;;;;;;;14.27;12.48;;;6.80;99.90;;;;;;4965465;28;20176;-77
2023/12/06 11:03:01;;;;;;;18.13;12.32;;;6.90;99.90;;;;;;4962966;28;20035;-77
2023/12/06 11:05:30;;;;;;;12.70;10.73;;;7.00;99.90;;;;;;4964520;28;20106;-77
2023/12/06 11:08:20;;;;;;;15.13;11.40;;;7.00;99.90;;;;;;4978294;28;20485;-77
2023/12/06 11:11:04;;;;;;;14.68;10.05;;;7.10;99.90;;;;;;4959707;28;20027;-77
2023/12/06 11:13:49;;;;;;;12.30;8.30;;;7.20;99.90;;;;;;4955020;28;20060;-77
2023/12/06 11:16:32;;;;;;;16.67;7.95;;;7.30;99.90;;;;;;4969106;28;20054;-77
2023/12/06 11:18:59;;;;;;;17.63;7.80;;;7.50;96.70;;;;;;4965641;28;20511;-77
2023/12/06 11:21:26;;;;;;;12.70;6.55;;;7.50;99.90;;;;;;4967683;28;20026;-77
2023/12/06 11:23:52;;;;;;;11.15;6.30;;;7.60;99.90;;;;;;4954272;28;20388;-77
2023/12/06 11:26:18;;;;;;;12.52;6.03;;;7.60;99.90;;;;;;4949738;28;20114;-77
2023/12/06 11:28:44;;;;;;;8.40;4.60;;;7.80;96.10;;;;;;4965326;28;20106;-78
2023/12/06 11:31:15;;;;;;;5.18;3.97;;;7.90;71.90;;;;;;4965107;28;20493;-77
2023/12/06 11:33:41;;;;;;;6.95;4.20;;;8.00;83.90;;;;;;4964764;28;20086;-78
2023/12/06 11:36:16;;;;;;;6.32;4.22;;;8.10;60.20;;;;;;4961457;28;20102;-77
2023/12/06 11:38:42;;;;;;;17.42;5.93;;;8.10;53.20;;;;;;4962329;28;20035;-77
2023/12/06 11:41:16;;;;;;;11.75;4.80;;;8.20;53.70;;;;;;4968564;28;20046;-77
2023/12/06 11:43:49;;;;;;;4.43;4.13;;;8.40;22.10;;;;;;4967622;28;20039;-77
2023/12/06 11:46:16;;;;;;;11.70;4.00;;;8.40;21.50;;;;;;4966131;28;20018;-77
2023/12/06 11:48:44;;;;;;;6.47;5.10;;;8.50;24.20;;;;;;4964344;28;20058;-77
2023/12/06 11:51:31;;;;;;;7.15;4.95;;;8.60;30.60;;;;;;4965284;28;20101;-78
2023/12/06 11:53:57;;;;;;;5.95;4.65;;;8.60;66.10;;;;;;4960808;28;20035;-77
2023/12/06 11:56:25;;;;;;;8.55;4.25;;;8.70;57.00;;;;;;4950905;28;20421;-78
2023/12/06 11:58:52;;;;;;;6.47;4.63;;;8.70;36.80;;;;;;4967038;28;20058;-77
2023/12/06 12:01:19;;;;;;;9.25;4.95;;;8.70;36.90;;;;;;4966206;28;20019;-77
2023/12/06 12:03:46;;;;;;;7.43;4.45;;;8.80;15.30;;;;;;4967070;28;20023;-77
2023/12/06 12:06:15;;;;;;;20.75;7.22;;;8.80;14.20;;;;;;4965447;28;20019;-77
2023/12/06 12:08:42;;;;;;;9.52;5.25;;;8.80;18.10;;;;;;4968254;28;20042;-78
2023/12/06 12:11:09;;;;;;;10.32;5.55;;;8.80;29.00;;;;;;4963856;28;20030;-77
2023/12/06 12:13:39;;;;;;;5.63;5.20;;;8.80;24.30;;;;;;4964800;28;20136;-78
2023/12/06 12:16:06;;;;;;;9.13;6.28;;;8.80;25.60;;;;;;4964118;28;20466;-78
2023/12/06 12:18:32;;;;;;;6.45;5.63;;;8.80;1.00;;;;;;4961437;28;20035;-78
2023/12/06 12:20:58;;;;;;;9.32;5.82;;;8.80;2.60;;;;;;4963687;28;20066;-77
2023/12/06 12:23:30;;;;;;;11.05;6.35;;;8.80;20.60;;;;;;4964247;28;20105;-78
2023/12/06 12:25:56;;;;;;;;;;;8.80;1.00;;;;;;4964200;28;20058;-77
2023/12/06 12:28:23;;;;;;;6.93;5.90;;;8.90;19.30;;;;;;4964679;28;19906;-77
2023/12/06 12:31:00;;;;;;;10.90;6.20;;;8.80;37.90;;;;;;4963501;28;20069;-77
2023/12/06 12:33:27;;;;;;;21.70;7.45;;;8.80;16.30;;;;;;4968574;28;20054;-78
2023/12/06 12:35:54;;;;;;;11.23;7.90;;;8.80;31.60;;;;;;4963324;28;20055;-78
2023/12/06 12:38:20;;;;;;;8.20;7.03;;;8.80;20.40;;;;;;4966661;28;20129;-77